Time;durP1;ratioP1;P1;durP2;ratioP2;P2;SDS_P1;SDS_P2;PMS_P1;PMS_P2;Temp;Humidity;BMP_temperature;BMP_pressure;BME280_temperature;BME280_humidity;BME280_pressure;Samples;Min_cycle;Max_cycle;Signal;HPM_P1;HPM_P2
2021/09/14 00:01:17;;;;;;;19.35;17.35;;;;;;;;;;4966203;28;20427;-83
2021/09/14 00:03:44;;;;;;;18.70;16.73;;;;;;;;;;4962179;28;20422;-83
2021/09/14 00:06:11;;;;;;;19.42;17.52;;;;;;;;;;4967695;28;20410;-84
2021/09/14 00:08:37;;;;;;;18.63;16.67;;;;;;;;;;4965243;28;20426;-84
2021/09/14 00:11:04;;;;;;;18.38;16.58;;;;;;;;;;4967831;28;20414;-84
2021/09/14 00:13:31;;;;;;;19.33;17.42;;;;;;;;;;4967582;28;20756;-84
2021/09/14 00:15:59;;;;;;;18.50;16.60;;;;;;;;;;4967908;28;20917;-84
2021/09/14 00:18:26;;;;;;;18.63;16.63;;;;;;;;;;4970226;28;20421;-84
2021/09/14 00:20:53;;;;;;;19.00;17.00;;;;;;;;;;4967649;28;20410;-85
2021/09/14 00:23:20;;;;;;;17.77;16.07;;;;;;;;;;4967662;28;20442;-85
2021/09/14 00:25:47;;;;;;;19.43;17.33;;;;;;;;;;4967539;28;20509;-84
2021/09/14 00:28:14;;;;;;;18.67;16.77;;;;;;;;;;4963876;28;20410;-84
2021/09/14 00:30:40;;;;;;;18.70;16.90;;;;;;;;;;4966731;28;20765;-84
2021/09/14 00:33:09;;;;;;;18.40;16.60;;;;;;;;;;4969409;28;20415;-84
2021/09/14 00:35:35;;;;;;;18.38;16.55;;;;;;;;;;4981551;28;20407;-84
2021/09/14 00:38:02;;;;;;;17.77;16.00;;;;;;;;;;4982208;28;20449;-86
2021/09/14 00:40:29;;;;;;;18.33;16.47;;;;;;;;;;4969937;28;20406;-84
2021/09/14 00:42:56;;;;;;;18.33;16.53;;;;;;;;;;4966345;28;20511;-85
2021/09/14 00:45:23;;;;;;;19.02;17.23;;;;;;;;;;4966917;28;20926;-84
2021/09/14 00:47:50;;;;;;;18.45;16.55;;;;;;;;;;4966970;28;20912;-85
2021/09/14 00:50:18;;;;;;;18.02;16.17;;;;;;;;;;4965572;28;20426;-85
2021/09/14 00:52:45;;;;;;;19.33;17.30;;;;;;;;;;4966823;28;20406;-85
2021/09/14 00:55:12;;;;;;;18.52;16.70;;;;;;;;;;4966380;28;20422;-85
2021/09/14 00:57:39;;;;;;;17.38;15.68;;;;;;;;;;4966730;28;20410;-83
2021/09/14 01:00:07;;;;;;;17.92;16.23;;;;;;;;;;4966666;28;20417;-85
2021/09/14 01:02:35;;;;;;;18.30;16.33;;;;;;;;;;4966345;28;20462;-85
2021/09/14 01:05:03;;;;;;;18.90;16.38;;;;;;;;;;4966811;28;20737;-85
2021/09/14 01:07:32;;;;;;;18.08;16.27;;;;;;;;;;4966392;28;20436;-84
2021/09/14 01:10:00;;;;;;;17.27;15.52;;;;;;;;;;4965628;28;20430;-85
2021/09/14 01:12:27;;;;;;;18.55;16.77;;;;;;;;;;4966781;28;20803;-84
2021/09/14 01:14:56;;;;;;;18.02;15.98;;;;;;;;;;4966591;28;20407;-85
2021/09/14 01:17:23;;;;;;;18.20;15.45;;;;;;;;;;4966479;28;20406;-85
2021/09/14 01:19:50;;;;;;;18.10;16.40;;;;;;;;;;4965994;28;20417;-85
2021/09/14 01:22:17;;;;;;;18.80;16.88;;;;;;;;;;4961965;28;20426;-84
2021/09/14 01:24:45;;;;;;;19.50;17.42;;;;;;;;;;4966122;28;20779;-85
2021/09/14 01:27:12;;;;;;;18.48;16.58;;;;;;;;;;4966117;28;20423;-85
2021/09/14 01:32:23;;;;;;;19.25;17.35;;;;;;;;;;4968353;28;21060;-85
2021/09/14 01:34:50;;;;;;;18.65;16.13;;;;;;;;;;4968844;28;20418;-84
2021/09/14 01:37:17;;;;;;;18.98;16.98;;;;;;;;;;4962248;28;20406;-85
2021/09/14 01:39:45;;;;;;;18.38;16.48;;;;;;;;;;4966997;28;20407;-84
2021/09/14 01:42:12;;;;;;;18.92;16.95;;;;;;;;;;4965819;28;20659;-85
2021/09/14 01:44:39;;;;;;;18.25;16.50;;;;;;;;;;4965641;28;20409;-85
2021/09/14 01:47:05;;;;;;;17.83;16.13;;;;;;;;;;4964347;28;20877;-84
2021/09/14 01:49:32;;;;;;;18.30;16.60;;;;;;;;;;4964363;28;20402;-85
2021/09/14 01:52:00;;;;;;;18.40;16.63;;;;;;;;;;4965581;28;20436;-84
2021/09/14 01:54:27;;;;;;;18.60;16.75;;;;;;;;;;4965657;28;20446;-84
2021/09/14 01:56:55;;;;;;;18.10;16.30;;;;;;;;;;4965230;28;20419;-85
2021/09/14 01:59:23;;;;;;;20.08;15.73;;;;;;;;;;4965575;28;20430;-84
2021/09/14 02:01:56;;;;;;;18.02;16.23;;;;;;;;;;4965525;28;20418;-84
2021/09/14 02:04:34;;;;;;;17.00;15.25;;;;;;;;;;4971122;28;20491;-84
2021/09/14 02:59:21;;;;;;;19.25;17.35;;;;;;;;;;4964763;28;20426;-84
2021/09/14 03:01:49;;;;;;;19.35;17.38;;;;;;;;;;4965565;28;20469;-85
2021/09/14 03:04:16;;;;;;;19.17;17.17;;;;;;;;;;4965663;28;20399;-84
2021/09/14 03:06:43;;;;;;;18.13;16.33;;;;;;;;;;4969123;28;20410;-84
2021/09/14 03:09:10;;;;;;;18.43;16.67;;;;;;;;;;4969524;28;20413;-84
2021/09/14 03:11:37;;;;;;;17.60;15.90;;;;;;;;;;4969086;28;20417;-84
2021/09/14 03:14:04;;;;;;;18.67;16.87;;;;;;;;;;4969242;28;20505;-83
2021/09/14 03:16:30;;;;;;;19.63;16.97;;;;;;;;;;4969175;28;20775;-85
2021/09/14 03:18:59;;;;;;;18.80;16.90;;;;;;;;;;4969002;28;20415;-84
2021/09/14 03:21:26;;;;;;;18.80;16.87;;;;;;;;;;4968835;28;20415;-84
2021/09/14 03:23:53;;;;;;;18.57;16.83;;;;;;;;;;4969058;28;20895;-84
2021/09/14 03:26:20;;;;;;;18.13;16.42;;;;;;;;;;4968889;28;20417;-84
2021/09/14 03:28:47;;;;;;;18.17;16.37;;;;;;;;;;4968919;28;20797;-84
2021/09/14 03:31:15;;;;;;;17.93;16.03;;;;;;;;;;4969162;28;20883;-84
2021/09/14 03:33:42;;;;;;;18.25;16.55;;;;;;;;;;4968565;28;20574;-85
2021/09/14 03:36:11;;;;;;;19.63;16.90;;;;;;;;;;4968768;28;20417;-84
2021/09/14 03:38:37;;;;;;;18.17;16.35;;;;;;;;;;4974396;28;20420;-84
2021/09/14 03:41:04;;;;;;;18.58;16.70;;;;;;;;;;4988210;28;20412;-84
2021/09/14 03:43:31;;;;;;;18.58;16.73;;;;;;;;;;4987923;28;20429;-84
2021/09/14 03:45:58;;;;;;;18.00;16.25;;;;;;;;;;4988100;28;20408;-84
2021/09/14 03:48:25;;;;;;;18.45;16.67;;;;;;;;;;4988292;28;20805;-84
2021/09/14 03:50:52;;;;;;;18.13;16.33;;;;;;;;;;4987984;28;20496;-84
2021/09/14 03:53:21;;;;;;;19.15;17.08;;;;;;;;;;4988193;28;20409;-84
2021/09/14 03:55:47;;;;;;;18.10;16.30;;;;;;;;;;4988030;28;20416;-84
2021/09/14 03:58:14;;;;;;;19.02;17.15;;;;;;;;;;4987995;28;20405;-85
2021/09/14 04:00:42;;;;;;;18.77;16.98;;;;;;;;;;4987937;28;20440;-85
2021/09/14 04:03:12;;;;;;;18.88;17.08;;;;;;;;;;4985010;28;20422;-84
2021/09/14 04:05:46;;;;;;;18.42;16.52;;;;;;;;;;4957993;28;20481;-84
2021/09/14 04:10:58;;;;;;;19.40;17.50;;;;;;;;;;4967957;28;20489;-84
2021/09/14 04:13:25;;;;;;;19.63;17.15;;;;;;;;;;4967721;28;20417;-84
2021/09/14 04:15:52;;;;;;;19.20;16.95;;;;;;;;;;4967525;28;20442;-84
2021/09/14 04:18:19;;;;;;;18.65;16.75;;;;;;;;;;4967370;28;20402;-84
2021/09/14 04:20:46;;;;;;;18.20;16.33;;;;;;;;;;4968729;28;20410;-84
2021/09/14 04:23:12;;;;;;;18.58;16.77;;;;;;;;;;4977769;28;20437;-84
2021/09/14 04:25:39;;;;;;;20.90;18.13;;;;;;;;;;4972610;28;20414;-84
2021/09/14 04:28:08;;;;;;;23.23;18.08;;;;;;;;;;4967247;28;20406;-84
2021/09/14 04:30:34;;;;;;;19.38;17.48;;;;;;;;;;4967276;28;20910;-85
2021/09/14 04:33:01;;;;;;;20.92;17.70;;;;;;;;;;4966710;28;20413;-83
2021/09/14 04:35:28;;;;;;;19.17;17.27;;;;;;;;;;4966822;28;20414;-84
2021/09/14 04:37:55;;;;;;;19.85;17.80;;;;;;;;;;4966658;28;20410;-84
2021/09/14 04:40:22;;;;;;;19.25;17.35;;;;;;;;;;4965367;28;20469;-84
2021/09/14 04:42:48;;;;;;;23.10;19.27;;;;;;;;;;4966442;28;20427;-84
2021/09/14 04:45:17;;;;;;;19.42;17.52;;;;;;;;;;4966940;28;20418;-84
2021/09/14 04:47:43;;;;;;;20.25;16.83;;;;;;;;;;4966440;28;20410;-85
2021/09/14 04:50:11;;;;;;;19.77;17.75;;;;;;;;;;4966786;28;20406;-84
2021/09/14 04:52:38;;;;;;;19.35;17.42;;;;;;;;;;4966755;28;21236;-84
2021/09/14 04:55:05;;;;;;;20.47;17.63;;;;;;;;;;4965391;28;20418;-85
2021/09/14 04:57:32;;;;;;;19.45;17.42;;;;;;;;;;4967307;28;20414;-84
2021/09/14 04:59:59;;;;;;;19.73;17.67;;;;;;;;;;4966739;28;21240;-84
2021/09/14 05:02:28;;;;;;;19.48;17.58;;;;;;;;;;4965965;28;20422;-84
2021/09/14 05:04:54;;;;;;;19.17;17.15;;;;;;;;;;4965772;28;20410;-84
2021/09/14 05:07:21;;;;;;;20.25;17.95;;;;;;;;;;4966009;28;20407;-84
2021/09/14 05:09:48;;;;;;;20.58;18.27;;;;;;;;;;4965946;28;20426;-84
2021/09/14 05:12:15;;;;;;;21.08;18.88;;;;;;;;;;4966606;28;20410;-84
2021/09/14 05:14:42;;;;;;;19.98;17.88;;;;;;;;;;4966756;28;20433;-84
2021/09/14 05:17:08;;;;;;;20.95;18.33;;;;;;;;;;4966623;28;20914;-83
2021/09/14 05:19:38;;;;;;;20.35;18.20;;;;;;;;;;4961982;28;20422;-85
2021/09/14 05:22:05;;;;;;;21.58;18.70;;;;;;;;;;4965547;28;20758;-85
2021/09/14 05:24:33;;;;;;;21.73;19.48;;;;;;;;;;4968148;28;20406;-85
2021/09/14 05:27:01;;;;;;;23.40;19.50;;;;;;;;;;4965985;28;20417;-85
2021/09/14 05:29:28;;;;;;;21.23;19.02;;;;;;;;;;4962826;28;20430;-84
2021/09/14 05:31:56;;;;;;;23.53;18.37;;;;;;;;;;4962680;28;20460;-84
2021/09/14 05:34:23;;;;;;;21.03;18.83;;;;;;;;;;4965443;28;20402;-85
2021/09/14 05:36:51;;;;;;;21.80;19.02;;;;;;;;;;4968273;28;20425;-85
2021/09/14 05:39:18;;;;;;;21.08;18.50;;;;;;;;;;4967674;28;20422;-84
2021/09/14 05:41:45;;;;;;;23.63;18.80;;;;;;;;;;4965323;28;20470;-84
2021/09/14 05:44:12;;;;;;;22.47;18.47;;;;;;;;;;4964592;28;20429;-85
2021/09/14 05:46:39;;;;;;;24.37;18.77;;;;;;;;;;4965831;28;20417;-85
2021/09/14 05:49:06;;;;;;;21.13;18.10;;;;;;;;;;4960279;28;20407;-85
2021/09/14 05:51:33;;;;;;;20.17;16.80;;;;;;;;;;4964130;28;20457;-84
2021/09/14 05:54:01;;;;;;;21.55;17.17;;;;;;;;;;4963044;28;20825;-84
2021/09/14 05:56:31;;;;;;;19.83;17.77;;;;;;;;;;4963448;28;20410;-85
2021/09/14 05:58:58;;;;;;;23.17;19.05;;;;;;;;;;4962624;28;20421;-84
2021/09/14 06:01:25;;;;;;;19.90;17.75;;;;;;;;;;4962710;28;20898;-85
2021/09/14 06:03:52;;;;;;;22.35;18.45;;;;;;;;;;4962186;28;20532;-84
2021/09/14 06:06:19;;;;;;;21.47;18.10;;;;;;;;;;4964059;28;21201;-85
2021/09/14 06:08:46;;;;;;;21.63;18.10;;;;;;;;;;4965918;28;20510;-84
2021/09/14 06:11:14;;;;;;;21.95;18.40;;;;;;;;;;4965076;28;20444;-85
2021/09/14 06:13:42;;;;;;;20.73;18.27;;;;;;;;;;4968892;28;20423;-84
2021/09/14 06:16:09;;;;;;;20.35;18.05;;;;;;;;;;4969567;28;20966;-84
2021/09/14 06:18:36;;;;;;;21.67;18.75;;;;;;;;;;4964657;28;20410;-84
2021/09/14 06:21:03;;;;;;;21.25;19.05;;;;;;;;;;4965439;28;20415;-84
2021/09/14 06:23:30;;;;;;;27.55;19.10;;;;;;;;;;4966317;28;20434;-85
2021/09/14 06:25:57;;;;;;;24.30;18.63;;;;;;;;;;4965942;28;20421;-85
2021/09/14 06:28:25;;;;;;;23.73;19.60;;;;;;;;;;4967715;28;21156;-84
2021/09/14 06:30:52;;;;;;;21.70;18.80;;;;;;;;;;4967862;28;20783;-84
2021/09/14 06:33:19;;;;;;;22.63;18.70;;;;;;;;;;4970272;28;20417;-84
2021/09/14 06:35:45;;;;;;;24.55;19.15;;;;;;;;;;4947772;28;20403;-84
2021/09/14 06:38:12;;;;;;;25.47;18.27;;;;;;;;;;4965441;28;20415;-84
2021/09/14 06:40:39;;;;;;;22.43;17.90;;;;;;;;;;4967578;28;20482;-84
2021/09/14 06:43:06;;;;;;;21.27;18.45;;;;;;;;;;4969743;28;20882;-84
2021/09/14 06:45:34;;;;;;;24.48;18.10;;;;;;;;;;4970956;28;20414;-83
2021/09/14 06:48:01;;;;;;;24.77;17.92;;;;;;;;;;4972727;28;20414;-84
2021/09/14 06:50:28;;;;;;;20.77;18.55;;;;;;;;;;4969181;28;20414;-84
2021/09/14 06:52:54;;;;;;;24.15;18.90;;;;;;;;;;4969357;28;20737;-84
2021/09/14 06:55:21;;;;;;;22.70;18.02;;;;;;;;;;4969489;28;20414;-84
2021/09/14 06:57:48;;;;;;;23.48;18.65;;;;;;;;;;4969435;28;20394;-84
2021/09/14 07:00:15;;;;;;;19.80;17.63;;;;;;;;;;4969199;28;20410;-84
2021/09/14 07:02:43;;;;;;;22.30;18.50;;;;;;;;;;4966938;28;20418;-84
2021/09/14 07:05:12;;;;;;;21.55;18.80;;;;;;;;;;4969591;28;20417;-84
2021/09/14 07:07:38;;;;;;;23.92;18.23;;;;;;;;;;4965972;28;20489;-84
2021/09/14 07:10:06;;;;;;;23.65;18.10;;;;;;;;;;4969145;28;20469;-83
2021/09/14 07:12:33;;;;;;;22.83;18.38;;;;;;;;;;4969197;28;20410;-83
2021/09/14 07:15:00;;;;;;;20.80;18.60;;;;;;;;;;4968958;28;20422;-84
2021/09/14 07:17:27;;;;;;;22.88;18.33;;;;;;;;;;4968710;28;20430;-85
2021/09/14 07:19:55;;;;;;;23.05;18.33;;;;;;;;;;4968747;28;20433;-84
2021/09/14 07:22:22;;;;;;;23.37;18.87;;;;;;;;;;4971924;28;20491;-84
2021/09/14 07:24:49;;;;;;;20.35;18.30;;;;;;;;;;4968417;28;20434;-85
2021/09/14 07:27:16;;;;;;;19.08;16.85;;;;;;;;;;4968861;28;20418;-84
2021/09/14 07:29:42;;;;;;;23.80;17.38;;;;;;;;;;4966937;28;20429;-85
2021/09/14 07:32:09;;;;;;;19.83;17.55;;;;;;;;;;4968688;28;20411;-85
2021/09/14 07:34:36;;;;;;;22.83;17.75;;;;;;;;;;4964733;28;20414;-84
2021/09/14 07:37:04;;;;;;;22.98;18.08;;;;;;;;;;4968440;28;20899;-84
2021/09/14 07:39:31;;;;;;;19.58;16.40;;;;;;;;;;4968577;28;20406;-84
2021/09/14 07:41:58;;;;;;;22.00;17.15;;;;;;;;;;4968536;28;20474;-84
2021/09/14 07:44:25;;;;;;;18.25;16.55;;;;;;;;;;4968197;28;20431;-84
2021/09/14 07:46:52;;;;;;;18.65;16.75;;;;;;;;;;4968113;28;20916;-84
2021/09/14 07:49:19;;;;;;;18.92;16.60;;;;;;;;;;4967918;28;20879;-84
2021/09/14 07:51:46;;;;;;;19.37;16.57;;;;;;;;;;4967789;28;20422;-83
2021/09/14 07:54:14;;;;;;;18.20;16.30;;;;;;;;;;4967147;28;20522;-84
2021/09/14 07:56:41;;;;;;;17.52;15.60;;;;;;;;;;4967759;28;20499;-84
2021/09/14 07:59:09;;;;;;;18.23;15.73;;;;;;;;;;4968073;28;20411;-82
2021/09/14 08:01:36;;;;;;;16.00;14.30;;;;;;;;;;4968238;28;20508;-84
2021/09/14 08:04:02;;;;;;;17.08;14.48;;;;;;;;;;4967640;28;20434;-83
2021/09/14 08:06:29;;;;;;;15.48;13.70;;;;;;;;;;4967821;28;20436;-84
2021/09/14 08:08:56;;;;;;;15.85;13.80;;;;;;;;;;4965940;28;20792;-85
2021/09/14 08:11:24;;;;;;;14.20;12.77;;;;;;;;;;4968127;28;20444;-85
2021/09/14 08:13:51;;;;;;;16.58;13.88;;;;;;;;;;4967865;28;20418;-84
2021/09/14 08:16:19;;;;;;;17.00;14.38;;;;;;;;;;4968688;28;20406;-85
2021/09/14 08:18:46;;;;;;;15.87;14.00;;;;;;;;;;4972470;28;20884;-85
2021/09/14 08:21:13;;;;;;;17.67;15.30;;;;;;;;;;4972529;28;20421;-84
2021/09/14 08:23:40;;;;;;;15.57;13.98;;;;;;;;;;4968243;28;20422;-84
2021/09/14 08:26:06;;;;;;;16.00;14.05;;;;;;;;;;4968269;28;20410;-85
2021/09/14 08:28:35;;;;;;;15.60;12.80;;;;;;;;;;4966937;28;20430;-85
2021/09/14 08:31:02;;;;;;;13.85;12.32;;;;;;;;;;4967380;28;20834;-84
2021/09/14 08:33:29;;;;;;;13.57;12.27;;;;;;;;;;4968209;28;20412;-84
2021/09/14 08:35:56;;;;;;;13.57;12.05;;;;;;;;;;4965073;28;20879;-84
2021/09/14 08:38:23;;;;;;;13.05;11.68;;;;;;;;;;4965602;28;20404;-85
2021/09/14 08:40:50;;;;;;;13.40;12.00;;;;;;;;;;4968935;28;20409;-85
2021/09/14 08:43:17;;;;;;;13.38;11.63;;;;;;;;;;4972047;28;20410;-85
2021/09/14 08:45:46;;;;;;;13.77;10.75;;;;;;;;;;4969097;28;20799;-84
2021/09/14 08:48:13;;;;;;;10.75;9.55;;;;;;;;;;4967679;28;20410;-84
2021/09/14 08:50:40;;;;;;;12.67;9.83;;;;;;;;;;4965244;28;20429;-85
2021/09/14 08:53:07;;;;;;;11.38;9.48;;;;;;;;;;4965443;28;20418;-84
2021/09/14 08:55:35;;;;;;;11.27;9.38;;;;;;;;;;4964842;28;20513;-85
2021/09/14 08:58:02;;;;;;;10.43;9.40;;;;;;;;;;4967069;28;21176;-85
2021/09/14 09:00:33;;;;;;;10.43;8.60;;;;;;;;;;4968442;28;20401;-85
2021/09/14 09:03:02;;;;;;;10.43;9.35;;;;;;;;;;4965789;28;21018;-85
2021/09/14 09:05:33;;;;;;;11.32;9.45;;;;;;;;;;4966643;28;20422;-84
2021/09/14 09:08:01;;;;;;;10.70;9.43;;;;;;;;;;4966137;28;20425;-85
2021/09/14 09:10:29;;;;;;;12.27;9.25;;;;;;;;;;4965520;28;20541;-85
2021/09/14 09:12:57;;;;;;;11.50;9.40;;;;;;;;;;4966663;28;20414;-85
2021/09/14 09:15:28;;;;;;;12.37;9.53;;;;;;;;;;4967259;28;20497;-85
2021/09/14 09:18:05;;;;;;;11.07;9.82;;;;;;;;;;4966707;28;20402;-84
2021/09/14 09:20:33;;;;;;;11.18;9.10;;;;;;;;;;4949437;28;20778;-85
2021/09/14 09:23:01;;;;;;;11.10;9.00;;;;;;;;;;4966663;28;20406;-84
2021/09/14 09:25:28;;;;;;;9.60;8.65;;;;;;;;;;4967082;28;20430;-84
2021/09/14 09:28:10;;;;;;;11.15;8.50;;;;;;;;;;4969598;28;20445;-84
2021/09/14 09:30:40;;;;;;;11.07;8.33;;;;;;;;;;4966602;28;20478;-85
2021/09/14 09:33:10;;;;;;;12.43;8.23;;;;;;;;;;4966614;28;20410;-84
2021/09/14 09:35:39;;;;;;;9.32;7.90;;;;;;;;;;4966828;28;20407;-83
2021/09/14 09:38:08;;;;;;;11.17;8.27;;;;;;;;;;4965668;28;20938;-85
2021/09/14 09:40:37;;;;;;;8.80;7.95;;;;;;;;;;4966797;28;20413;-84
2021/09/14 09:43:07;;;;;;;9.95;8.40;;;;;;;;;;4966649;28;20419;-84
2021/09/14 09:45:40;;;;;;;9.38;7.80;;;;;;;;;;4965915;28;20457;-85
2021/09/14 09:48:08;;;;;;;10.05;8.02;;;;;;;;;;4966687;28;20406;-84
2021/09/14 09:50:35;;;;;;;11.83;8.60;;;;;;;;;;4966574;28;21065;-84
2021/09/14 09:53:03;;;;;;;10.10;7.90;;;;;;;;;;4965153;28;20839;-83
2021/09/14 09:55:30;;;;;;;11.68;8.32;;;;;;;;;;4966513;28;20414;-85
2021/09/14 09:57:57;;;;;;;10.43;7.60;;;;;;;;;;4966620;28;20406;-85
2021/09/14 10:00:24;;;;;;;9.43;8.27;;;;;;;;;;4966365;28;20879;-85
2021/09/14 10:02:57;;;;;;;11.60;8.52;;;;;;;;;;4963730;28;20422;-84
2021/09/14 10:05:29;;;;;;;11.82;8.38;;;;;;;;;;4966386;28;21077;-85
2021/09/14 10:08:02;;;;;;;9.38;8.15;;;;;;;;;;4966155;28;20446;-84
2021/09/14 10:10:34;;;;;;;8.82;7.93;;;;;;;;;;4965795;28;20406;-84
2021/09/14 10:13:04;;;;;;;9.75;7.80;;;;;;;;;;4965878;28;20863;-84
2021/09/14 10:15:38;;;;;;;11.75;8.43;;;;;;;;;;4965986;28;20414;-85
2021/09/14 10:18:05;;;;;;;18.42;9.00;;;;;;;;;;4965942;28;20488;-85
2021/09/14 10:20:40;;;;;;;10.40;8.30;;;;;;;;;;4965340;28;20434;-84
2021/09/14 10:23:08;;;;;;;12.77;8.73;;;;;;;;;;4965811;28;20406;-85
2021/09/14 10:25:36;;;;;;;12.20;8.80;;;;;;;;;;4965494;28;20542;-84
2021/09/14 10:28:08;;;;;;;9.30;8.30;;;;;;;;;;4966595;28;20410;-84
2021/09/14 10:30:35;;;;;;;10.65;9.45;;;;;;;;;;4965966;28;20466;-85
2021/09/14 10:33:02;;;;;;;10.50;8.93;;;;;;;;;;4965463;28;20412;-84
2021/09/14 10:35:30;;;;;;;12.23;8.80;;;;;;;;;;4965971;28;20410;-85
2021/09/14 10:38:13;;;;;;;11.97;8.70;;;;;;;;;;4965141;28;20933;-85
2021/09/14 10:40:41;;;;;;;11.88;8.75;;;;;;;;;;4966974;28;20411;-84
2021/09/14 10:43:08;;;;;;;10.00;8.23;;;;;;;;;;4967671;28;20860;-86
2021/09/14 10:45:43;;;;;;;17.80;9.27;;;;;;;;;;4965415;28;20827;-84
2021/09/14 10:48:25;;;;;;;10.02;8.85;;;;;;;;;;4966293;28;20443;-83
2021/09/14 10:50:52;;;;;;;10.27;8.70;;;;;;;;;;4965041;28;20410;-83
2021/09/14 10:53:30;;;;;;;9.80;8.75;;;;;;;;;;4963118;28;20418;-84
2021/09/14 10:55:59;;;;;;;10.95;8.88;;;;;;;;;;4965690;28;20414;-85
2021/09/14 10:58:27;;;;;;;13.80;9.23;;;;;;;;;;4966316;28;20413;-85
2021/09/14 11:00:55;;;;;;;11.88;8.95;;;;;;;;;;4965033;28;20410;-83
2021/09/14 11:03:22;;;;;;;12.83;8.83;;;;;;;;;;4967998;28;20406;-85
2021/09/14 11:05:53;;;;;;;11.57;9.40;;;;;;;;;;4964038;28;20437;-84
2021/09/14 11:08:24;;;;;;;11.48;8.43;;;;;;;;;;4966745;28;20429;-84
2021/09/14 11:10:58;;;;;;;13.73;8.65;;;;;;;;;;4967744;28;20807;-84
2021/09/14 11:13:27;;;;;;;12.77;8.75;;;;;;;;;;4968476;28;20514;-84
2021/09/14 11:15:59;;;;;;;10.82;8.18;;;;;;;;;;4965396;28;20485;-83
2021/09/14 11:18:27;;;;;;;13.20;8.43;;;;;;;;;;4967251;28;20413;-85
2021/09/14 11:21:01;;;;;;;11.93;8.40;;;;;;;;;;4958762;28;20749;-84
2021/09/14 11:23:28;;;;;;;12.93;8.85;;;;;;;;;;4963118;28;20441;-85
2021/09/14 11:25:57;;;;;;;11.38;8.88;;;;;;;;;;4964279;28;20510;-85
2021/09/14 11:28:24;;;;;;;12.35;8.43;;;;;;;;;;4969412;28;20414;-84
2021/09/14 11:30:57;;;;;;;10.57;8.43;;;;;;;;;;4966768;28;20418;-84
2021/09/14 11:33:29;;;;;;;11.18;8.50;;;;;;;;;;4963662;28;23101;-83
2021/09/14 11:35:58;;;;;;;10.57;8.40;;;;;;;;;;4966931;28;20414;-84
2021/09/14 11:38:26;;;;;;;9.63;8.15;;;;;;;;;;4965684;28;20414;-83
2021/09/14 11:40:56;;;;;;;11.23;8.10;;;;;;;;;;4966661;28;21217;-84
2021/09/14 11:43:25;;;;;;;10.77;8.02;;;;;;;;;;4965802;28;20402;-84
2021/09/14 11:45:53;;;;;;;10.23;9.13;;;;;;;;;;4965603;28;20423;-82
2021/09/14 11:48:23;;;;;;;16.07;8.80;;;;;;;;;;4964049;28;20513;-84
2021/09/14 11:51:01;;;;;;;9.80;8.30;;;;;;;;;;4970068;28;20511;-85
2021/09/14 11:53:28;;;;;;;8.90;7.60;;;;;;;;;;4967818;28;20503;-85
2021/09/14 11:55:57;;;;;;;9.48;7.70;;;;;;;;;;4959033;28;20921;-84
2021/09/14 11:58:30;;;;;;;8.80;7.53;;;;;;;;;;4965241;28;20410;-85
2021/09/14 12:01:01;;;;;;;10.70;8.70;;;;;;;;;;4963667;28;20433;-84
2021/09/14 12:03:35;;;;;;;10.27;7.72;;;;;;;;;;4968345;28;20919;-83
2021/09/14 12:06:02;;;;;;;9.77;8.10;;;;;;;;;;4967712;28;20513;-83
2021/09/14 12:08:31;;;;;;;8.80;8.00;;;;;;;;;;4970084;28;20406;-84
2021/09/14 12:11:00;;;;;;;9.70;7.05;;;;;;;;;;4968329;28;20433;-83
2021/09/14 12:13:40;;;;;;;12.00;7.57;;;;;;;;;;4967349;28;20629;-83
2021/09/14 12:16:12;;;;;;;8.65;7.50;;;;;;;;;;4966366;28;20493;-84
2021/09/14 12:18:41;;;;;;;10.85;7.25;;;;;;;;;;4968205;28;20417;-83
2021/09/14 12:21:08;;;;;;;8.23;7.17;;;;;;;;;;4967231;28;20411;-82
2021/09/14 12:23:35;;;;;;;9.57;7.13;;;;;;;;;;4971309;28;20490;-82
2021/09/14 12:26:03;;;;;;;12.20;7.03;;;;;;;;;;4971732;28;20848;-82
2021/09/14 12:28:31;;;;;;;8.82;6.20;;;;;;;;;;4968444;28;20746;-83
2021/09/14 12:30:57;;;;;;;8.27;7.18;;;;;;;;;;4964799;28;20448;-83
2021/09/14 12:33:24;;;;;;;7.80;6.65;;;;;;;;;;4967323;28;20406;-83
2021/09/14 12:35:51;;;;;;;9.07;6.53;;;;;;;;;;4969286;28;20410;-82
2021/09/14 12:38:18;;;;;;;7.57;6.70;;;;;;;;;;4964423;28;20484;-82
2021/09/14 12:40:45;;;;;;;7.75;6.90;;;;;;;;;;4970138;28;20414;-82
2021/09/14 12:43:13;;;;;;;8.18;6.65;;;;;;;;;;4964090;28;20502;-83
2021/09/14 12:45:40;;;;;;;11.18;7.05;;;;;;;;;;4967134;28;20439;-82
2021/09/14 12:48:07;;;;;;;10.40;7.03;;;;;;;;;;4968577;28;20414;-84
2021/09/14 12:50:34;;;;;;;7.15;6.38;;;;;;;;;;4968492;28;20412;-85
2021/09/14 12:53:03;;;;;;;8.50;6.45;;;;;;;;;;4966017;28;20414;-83
2021/09/14 12:55:33;;;;;;;9.13;6.13;;;;;;;;;;4965138;28;20427;-82
2021/09/14 12:58:00;;;;;;;8.55;6.20;;;;;;;;;;4966254;28;20421;-83
2021/09/14 13:00:28;;;;;;;9.07;6.55;;;;;;;;;;4965161;28;20410;-82
2021/09/14 13:02:55;;;;;;;9.10;6.18;;;;;;;;;;4970186;28;20445;-82
2021/09/14 13:05:22;;;;;;;10.07;6.95;;;;;;;;;;4973750;28;20437;-82
2021/09/14 13:07:49;;;;;;;8.50;6.23;;;;;;;;;;4967525;28;20414;-82
2021/09/14 13:10:15;;;;;;;9.23;6.32;;;;;;;;;;4966751;28;20906;-82
2021/09/14 13:12:46;;;;;;;7.07;6.38;;;;;;;;;;4973851;28;20409;-82
2021/09/14 13:18:00;;;;;;;7.27;6.27;;;;;;;;;;4968205;28;20445;-82
2021/09/14 13:20:27;;;;;;;7.50;6.50;;;;;;;;;;4966846;28;20429;-82
2021/09/14 13:22:55;;;;;;;7.80;6.60;;;;;;;;;;4965671;28;20445;-83
2021/09/14 13:25:22;;;;;;;6.43;5.82;;;;;;;;;;4965262;28;20430;-83
2021/09/14 13:27:49;;;;;;;8.30;6.57;;;;;;;;;;4966871;28;20414;-83
2021/09/14 13:30:16;;;;;;;7.13;6.07;;;;;;;;;;4966332;28;20406;-83
2021/09/14 13:32:43;;;;;;;8.18;5.72;;;;;;;;;;4964945;28;20426;-83
2021/09/14 13:35:11;;;;;;;7.60;6.18;;;;;;;;;;4964957;28;20421;-83
2021/09/14 13:37:38;;;;;;;8.45;6.22;;;;;;;;;;4966065;28;20440;-83
2021/09/14 13:40:06;;;;;;;11.90;6.65;;;;;;;;;;4969642;28;20418;-82
2021/09/14 13:42:33;;;;;;;7.38;6.57;;;;;;;;;;4971975;28;20413;-83
2021/09/14 13:47:49;;;;;;;8.75;6.30;;;;;;;;;;4909993;28;20447;-83
2021/09/14 13:50:18;;;;;;;6.72;5.88;;;;;;;;;;4962750;28;21144;-83
2021/09/14 13:52:44;;;;;;;7.95;6.50;;;;;;;;;;4965162;28;20406;-83
2021/09/14 13:55:11;;;;;;;11.50;6.10;;;;;;;;;;4965692;28;20414;-83
2021/09/14 13:57:38;;;;;;;7.68;6.07;;;;;;;;;;4965326;28;21014;-83
2021/09/14 14:00:06;;;;;;;7.40;6.00;;;;;;;;;;4964778;28;21101;-84
2021/09/14 14:02:33;;;;;;;7.88;6.22;;;;;;;;;;4966490;28;20421;-84
2021/09/14 14:04:59;;;;;;;9.60;6.10;;;;;;;;;;4964960;28;20528;-84
2021/09/14 14:07:28;;;;;;;7.90;5.88;;;;;;;;;;4968315;28;20406;-84
2021/09/14 14:09:54;;;;;;;6.70;6.10;;;;;;;;;;4966215;28;20410;-85
2021/09/14 14:12:21;;;;;;;7.25;6.47;;;;;;;;;;4963797;28;20587;-87
2021/09/14 14:14:48;;;;;;;7.25;6.40;;;;;;;;;;4964312;28;20425;-85
2021/09/14 14:17:15;;;;;;;7.60;5.97;;;;;;;;;;4964564;28;20418;-85
2021/09/14 14:19:42;;;;;;;6.45;5.85;;;;;;;;;;4966002;28;20410;-85
2021/09/14 14:22:09;;;;;;;6.90;5.85;;;;;;;;;;4964182;28;20410;-88
2021/09/14 14:24:37;;;;;;;8.73;6.30;;;;;;;;;;4966441;28;20766;-88
2021/09/14 14:27:04;;;;;;;7.97;6.25;;;;;;;;;;4967983;28;20453;-91
2021/09/14 14:29:31;;;;;;;7.38;6.40;;;;;;;;;;4970291;28;20409;-91
2021/09/14 14:31:58;;;;;;;7.00;6.25;;;;;;;;;;4971780;28;20434;-89
2021/09/14 14:34:25;;;;;;;7.05;6.40;;;;;;;;;;4958957;28;20502;-88
2021/09/14 14:36:52;;;;;;;6.93;6.00;;;;;;;;;;4968699;28;20418;-89
2021/09/14 14:39:19;;;;;;;7.05;6.38;;;;;;;;;;4965679;28;20415;-89
2021/09/14 14:41:47;;;;;;;8.48;6.38;;;;;;;;;;4965317;28;20413;-88
2021/09/14 14:44:15;;;;;;;7.50;6.00;;;;;;;;;;4961547;28;20405;-88
2021/09/14 14:46:41;;;;;;;7.65;6.85;;;;;;;;;;4965841;28;20430;-89
2021/09/14 14:49:09;;;;;;;7.90;6.60;;;;;;;;;;4966536;28;20476;-89
2021/09/14 14:51:36;;;;;;;6.80;6.10;;;;;;;;;;4961916;28;20450;-90
2021/09/14 14:54:03;;;;;;;6.78;6.07;;;;;;;;;;4969508;28;20411;-90
2021/09/14 14:56:30;;;;;;;6.90;6.20;;;;;;;;;;4969230;28;20425;-88
2021/09/14 14:58:58;;;;;;;7.88;6.80;;;;;;;;;;4967049;28;20414;-90
2021/09/14 15:01:25;;;;;;;6.85;6.25;;;;;;;;;;4969186;28;20749;-90
2021/09/14 15:03:52;;;;;;;7.03;6.32;;;;;;;;;;4971795;28;20402;-90
2021/09/14 15:06:19;;;;;;;7.30;6.30;;;;;;;;;;4975411;28;20425;-89
2021/09/14 15:08:45;;;;;;;6.90;6.20;;;;;;;;;;4976249;28;20461;-91
2021/09/14 15:11:12;;;;;;;7.47;6.53;;;;;;;;;;4977533;28;20421;-90
2021/09/14 15:13:39;;;;;;;7.28;6.15;;;;;;;;;;4978341;28;20418;-90
2021/09/14 15:16:07;;;;;;;7.18;6.40;;;;;;;;;;4990630;28;20390;-90
2021/09/14 15:18:34;;;;;;;7.10;6.28;;;;;;;;;;4984176;28;20438;-86
2021/09/14 15:21:01;;;;;;;10.80;6.47;;;;;;;;;;4972919;28;20414;-84
2021/09/14 15:23:28;;;;;;;9.13;6.00;;;;;;;;;;4970691;28;20429;-84
2021/09/14 15:25:56;;;;;;;7.28;6.57;;;;;;;;;;4970151;28;20425;-82
2021/09/14 15:28:24;;;;;;;10.95;6.75;;;;;;;;;;4977987;28;20412;-82
2021/09/14 15:30:54;;;;;;;9.13;6.60;;;;;;;;;;4970832;28;20462;-82
2021/09/14 15:33:22;;;;;;;6.93;6.22;;;;;;;;;;4968913;28;20402;-82